createdAt,value
2023-01-17T00:02:06.925Z,15.10
2023-01-17T00:06:09.517Z,33.13
2023-01-17T00:10:12.856Z,31.50
2023-01-17T00:14:14.257Z,12.68
2023-01-17T00:18:16.980Z,28.17
2023-01-17T00:22:22.398Z,39.50
2023-01-17T00:26:23.806Z,33.60
2023-01-17T00:30:26.095Z,38.58
2023-01-17T00:34:28.831Z,36.88
2023-01-17T00:38:31.887Z,26.65
2023-01-17T00:42:33.297Z,27.95
2023-01-17T00:46:34.719Z,40.92
2023-01-17T00:50:37.789Z,30.35
2023-01-17T00:54:39.226Z,36.72
2023-01-17T00:58:40.627Z,41.25
2023-01-17T01:02:42.109Z,23.17
2023-01-17T01:06:44.917Z,27.52
2023-01-17T01:10:48.059Z,48.30
2023-01-17T01:14:49.748Z,27.05
2023-01-17T01:18:51.138Z,33.58
2023-01-17T01:22:53.861Z,30.17
2023-01-17T01:26:55.272Z,17.15
2023-01-17T01:30:59.295Z,21.33
2023-01-17T01:35:00.711Z,23.38
2023-01-17T01:39:03.559Z,23.02
2023-01-17T01:43:06.179Z,25.55
2023-01-17T01:47:09.071Z,25.88
2023-01-17T01:51:13.468Z,23.20
2023-01-17T01:55:21.187Z,26.75
2023-01-17T01:59:23.473Z,22.02
2023-01-17T02:03:29.277Z,18.98
2023-01-17T02:07:34.411Z,22.92
2023-01-17T02:11:39.779Z,19.75
2023-01-17T02:15:50.023Z,20.08
2023-01-17T02:20:21.849Z,15.27
2023-01-17T02:24:41.367Z,24.90
2023-01-17T02:29:01.375Z,17.27
2023-01-17T02:33:17.827Z,21.33
2023-01-17T02:37:25.986Z,20.23
2023-01-17T02:41:32.548Z,20.70
2023-01-17T02:45:34.011Z,26.15
2023-01-17T02:49:36.881Z,6.22
2023-01-17T02:53:48.065Z,22.42
2023-01-17T02:58:04.751Z,18.05
2023-01-17T03:02:16.513Z,15.82
2023-01-17T03:06:24.909Z,24.13
2023-01-17T03:10:26.348Z,20.10
2023-01-17T03:14:30.877Z,17.60
2023-01-17T03:18:32.308Z,13.93
2023-01-17T03:22:35.032Z,11.45
2023-01-17T03:26:36.429Z,22.40
2023-01-17T03:30:37.860Z,21.30
2023-01-17T03:34:39.248Z,19.92
2023-01-17T03:38:41.983Z,16.48
2023-01-17T03:42:43.407Z,18.52
2023-01-17T03:46:44.800Z,18.13
2023-01-17T03:50:49.946Z,19.48
2023-01-17T03:54:52.674Z,25.42
2023-01-17T03:58:54.062Z,24.27
2023-01-17T04:02:55.487Z,16.95
2023-01-17T04:06:56.916Z,19.88
2023-01-17T04:10:59.677Z,20.67
2023-01-17T04:15:01.095Z,31.33
2023-01-17T04:19:02.505Z,22.52
2023-01-17T04:23:04.174Z,21.92
2023-01-17T04:27:06.921Z,20.73
2023-01-17T04:31:15.452Z,17.75
2023-01-17T04:35:17.033Z,14.10
2023-01-17T04:39:18.449Z,19.35
2023-01-17T04:43:21.178Z,19.05
2023-01-17T04:47:22.744Z,21.98
2023-01-17T04:51:24.303Z,27.25
2023-01-17T04:55:25.741Z,18.77
2023-01-17T04:59:28.501Z,10.63
2023-01-17T05:03:30.417Z,24.08
2023-01-17T05:07:31.819Z,14.05
2023-01-17T05:11:33.476Z,23.63
2023-01-17T05:15:36.769Z,21.15
2023-01-17T05:19:38.234Z,28.35
2023-01-17T05:23:39.640Z,26.10
2023-01-17T05:27:41.049Z,19.15
2023-01-17T05:31:43.777Z,21.33
2023-01-17T05:35:45.225Z,23.10
2023-01-17T05:39:46.629Z,21.70
2023-01-17T05:43:48.082Z,26.75
2023-01-17T05:47:53.147Z,23.55
2023-01-17T05:51:55.052Z,25.13
2023-01-17T05:55:56.514Z,20.27
2023-01-17T05:59:58.007Z,27.88
2023-01-17T06:04:00.756Z,22.50
2023-01-17T06:08:02.361Z,20.45
2023-01-17T06:12:04.405Z,20.65
2023-01-17T06:16:06.355Z,22.98
2023-01-17T06:20:11.846Z,22.73
2023-01-17T06:24:13.413Z,21.83
2023-01-17T06:28:17.087Z,26.33
2023-01-17T06:32:18.755Z,7.97
2023-01-17T06:36:21.518Z,14.48
2023-01-17T06:40:23.832Z,23.05
2023-01-17T06:44:25.239Z,9.70
2023-01-17T06:48:26.717Z,22.23
2023-01-17T06:52:29.451Z,35.13
2023-01-17T06:56:31.403Z,8.00
2023-01-17T07:00:32.840Z,25.13
2023-01-17T07:04:34.529Z,30.85
2023-01-17T07:08:37.536Z,23.25
2023-01-17T07:12:39.027Z,34.30
2023-01-17T07:16:40.474Z,18.08
2023-01-17T07:20:43.035Z,18.35
2023-01-17T07:24:45.752Z,30.52
2023-01-17T07:28:47.167Z,29.50
2023-01-17T07:32:51.057Z,23.80
2023-01-17T07:36:52.471Z,28.60
2023-01-17T07:40:58.915Z,35.92
2023-01-17T07:45:00.336Z,28.00
2023-01-17T07:49:02.593Z,23.50
2023-01-17T07:53:04.485Z,40.80
2023-01-17T07:57:11.567Z,25.30
2023-01-17T08:01:13.970Z,24.85
2023-01-17T08:05:16.300Z,14.50
2023-01-17T08:09:17.692Z,19.98
2023-01-17T08:13:20.527Z,21.85
2023-01-17T08:17:21.921Z,35.30
2023-01-17T08:21:23.896Z,24.73
2023-01-17T08:25:26.251Z,37.97
2023-01-17T08:29:29.028Z,37.10
2023-01-17T08:33:31.423Z,27.25
2023-01-17T08:37:32.866Z,27.75
2023-01-17T08:41:34.287Z,22.30
2023-01-17T08:45:37.151Z,9.73
2023-01-17T08:49:38.588Z,23.33
2023-01-17T08:53:40.002Z,28.48
2023-01-17T08:57:41.514Z,34.17
2023-01-17T09:01:44.468Z,22.23
2023-01-17T09:05:46.026Z,26.38
2023-01-17T09:09:47.456Z,21.13
2023-01-17T09:13:48.879Z,24.98
2023-01-17T09:17:55.221Z,7.25
2023-01-17T09:21:56.647Z,35.72
2023-01-17T09:25:59.513Z,27.15
2023-01-17T09:30:00.923Z,20.42
2023-01-17T09:34:03.697Z,27.25
2023-01-17T09:38:05.208Z,23.13
2023-01-17T09:42:20.387Z,22.25
2023-01-17T09:46:26.641Z,30.42
2023-01-17T09:54:35.252Z,14.07
2023-01-17T09:58:45.496Z,21.15
2023-01-17T10:03:03.456Z,23.30
2023-01-17T10:07:17.754Z,19.15
2023-01-17T10:11:34.360Z,19.52
2023-01-17T10:15:49.475Z,40.85
2023-01-17T10:20:03.402Z,22.27
2023-01-17T10:24:24.505Z,24.35
2023-01-17T10:28:30.456Z,20.27
2023-01-17T10:32:35.201Z,25.02
2023-01-17T10:36:41.346Z,30.00
2023-01-17T10:40:49.262Z,21.55
2023-01-17T10:44:59.326Z,30.20
2023-01-17T10:49:02.150Z,25.90
2023-01-17T10:53:09.750Z,26.83
2023-01-17T10:57:15.757Z,8.32
2023-01-17T11:01:20.151Z,22.38
2023-01-17T11:05:24.376Z,12.43
2023-01-17T11:09:37.748Z,25.15
2023-01-17T11:13:40.642Z,24.27
2023-01-17T11:17:47.488Z,9.82
2023-01-17T11:21:52.002Z,26.38
2023-01-17T11:25:57.172Z,34.05
2023-01-17T11:30:13.551Z,26.92
2023-01-17T11:34:17.247Z,19.85
2023-01-17T11:38:21.857Z,31.55
2023-01-17T11:42:34.982Z,17.25
2023-01-17T11:46:37.861Z,5.70
2023-01-17T11:50:41.809Z,22.35
2023-01-17T11:54:46.745Z,7.88
2023-01-17T11:58:48.392Z,28.02
2023-01-17T12:03:10.521Z,25.67
2023-01-17T12:07:28.589Z,26.13
2023-01-17T12:15:52.352Z,19.48
2023-01-17T12:19:59.366Z,8.30
2023-01-17T12:24:26.074Z,11.02
2023-01-17T12:28:45.844Z,10.07
2023-01-17T12:33:06.730Z,24.55
2023-01-17T12:37:19.515Z,21.35
2023-01-17T12:41:25.994Z,31.05
2023-01-17T12:45:32.116Z,24.02
2023-01-17T12:49:41.045Z,25.42
2023-01-17T12:53:49.224Z,24.45
2023-01-17T12:57:56.504Z,19.80
2023-01-17T13:02:01.311Z,11.88
2023-01-17T13:06:03.382Z,17.73
2023-01-17T13:10:24.016Z,21.30
2023-01-17T13:14:25.418Z,18.27
2023-01-17T13:18:29.205Z,35.58
2023-01-17T13:22:31.992Z,18.88
2023-01-17T13:26:46.648Z,28.83
2023-01-17T13:31:03.336Z,25.27
2023-01-17T13:35:19.745Z,23.73
2023-01-17T13:39:46.208Z,29.48
2023-01-17T13:43:49.090Z,31.88
2023-01-17T13:47:50.650Z,24.63
2023-01-17T13:52:06.758Z,25.83
2023-01-17T13:56:12.991Z,21.80
2023-01-17T14:00:48.956Z,24.92
2023-01-17T14:09:16.657Z,15.18
2023-01-17T14:13:33.835Z,27.48
2023-01-17T14:17:55.563Z,38.45
2023-01-17T14:22:22.236Z,27.65
2023-01-17T14:26:31.575Z,24.73
2023-01-17T14:30:36.752Z,21.90
2023-01-17T14:34:39.851Z,27.77
2023-01-17T14:38:43.175Z,24.33
2023-01-17T14:42:47.202Z,24.73
2023-01-17T14:46:49.035Z,23.63
2023-01-17T14:50:52.912Z,30.58
2023-01-17T14:54:54.306Z,22.40
2023-01-17T14:59:11.757Z,32.97
2023-01-17T15:03:13.689Z,32.75
2023-01-17T15:07:17.168Z,32.45
2023-01-17T15:11:23.973Z,18.40
2023-01-17T15:15:33.654Z,14.18
2023-01-17T15:19:41.685Z,29.10
2023-01-17T15:23:47.995Z,33.20
2023-01-17T15:31:53.401Z,26.02
2023-01-17T15:35:59.677Z,27.83
2023-01-17T15:40:06.415Z,22.73
2023-01-17T15:44:20.871Z,30.70
2023-01-17T15:48:37.545Z,32.17
2023-01-17T15:52:47.886Z,22.05
2023-01-17T15:57:01.400Z,31.88
2023-01-17T16:01:02.922Z,40.20
2023-01-17T16:05:35.961Z,25.65
2023-01-17T16:09:43.589Z,36.22
2023-01-17T16:13:46.411Z,46.38
2023-01-17T16:17:51.052Z,37.50
2023-01-17T16:21:52.664Z,43.13
2023-01-17T16:25:54.225Z,40.60
2023-01-17T16:29:57.059Z,47.50
2023-01-17T16:33:58.481Z,51.58
2023-01-17T16:38:02.047Z,39.67
2023-01-17T16:42:03.703Z,31.60
2023-01-17T16:46:06.793Z,35.65
2023-01-17T16:50:10.018Z,35.58
2023-01-17T16:54:11.449Z,22.23
2023-01-17T16:58:12.887Z,35.90
2023-01-17T17:02:15.697Z,38.50
2023-01-17T17:06:17.240Z,31.15
2023-01-17T17:10:20.459Z,37.47
2023-01-17T17:14:21.846Z,39.40
2023-01-17T17:18:24.580Z,36.20
2023-01-17T17:22:26.023Z,12.82
2023-01-17T17:26:29.808Z,27.20
2023-01-17T17:30:31.606Z,30.25
2023-01-17T17:34:34.348Z,27.20
2023-01-17T17:38:36.329Z,34.47
2023-01-17T17:42:37.835Z,31.00
2023-01-17T17:46:39.338Z,38.30
2023-01-17T17:50:42.109Z,35.72
2023-01-17T17:54:43.496Z,41.97
2023-01-17T17:58:46.225Z,38.50
2023-01-17T18:02:47.663Z,31.92
2023-01-17T18:06:50.418Z,53.63
2023-01-17T18:10:57.728Z,12.52
2023-01-17T18:14:59.124Z,31.23
2023-01-17T18:19:01.060Z,43.38
2023-01-17T18:23:04.129Z,38.50
2023-01-17T18:27:05.616Z,47.40
2023-01-17T18:31:07.656Z,45.90
2023-01-17T18:35:09.751Z,51.53
2023-01-17T18:39:14.464Z,48.40
2023-01-17T18:43:15.885Z,21.15
2023-01-17T18:47:17.283Z,36.33
2023-01-17T18:51:19.521Z,44.03
2023-01-17T18:55:22.262Z,39.78
2023-01-17T18:59:23.674Z,37.42
2023-01-17T19:03:26.787Z,21.20
2023-01-17T19:07:28.190Z,34.67
2023-01-17T19:11:30.921Z,43.88
2023-01-17T19:15:32.663Z,38.00
2023-01-17T19:19:34.070Z,48.55
2023-01-17T19:23:36.485Z,32.72
2023-01-17T19:27:39.294Z,36.25
2023-01-17T19:31:40.963Z,45.15
2023-01-17T19:35:42.383Z,37.05
2023-01-17T19:39:43.789Z,39.92
2023-01-17T19:43:46.620Z,34.85
2023-01-17T19:47:48.045Z,58.53
2023-01-17T19:51:49.466Z,39.58
2023-01-17T19:55:50.947Z,41.58
2023-01-17T19:59:53.953Z,88.43
2023-01-17T20:03:57.920Z,50.30
2023-01-17T20:07:59.899Z,44.78
2023-01-17T20:12:01.316Z,36.72
2023-01-17T20:16:05.322Z,59.55
2023-01-17T20:20:07.300Z,39.63
2023-01-17T20:24:10.285Z,48.60
2023-01-17T20:28:11.721Z,54.08
2023-01-17T20:32:14.508Z,62.03
2023-01-17T20:36:17.913Z,47.05
2023-01-17T20:40:19.333Z,44.30
2023-01-17T20:44:21.016Z,42.80
2023-01-17T20:48:23.752Z,50.72
2023-01-17T20:52:25.150Z,50.00
2023-01-17T20:56:27.473Z,49.53
2023-01-17T21:00:28.965Z,35.15
2023-01-17T21:04:31.727Z,47.70
2023-01-17T21:08:35.275Z,46.38
2023-01-17T21:12:36.686Z,49.03
2023-01-17T21:16:39.053Z,21.42
2023-01-17T21:20:41.939Z,46.63
2023-01-17T21:24:43.329Z,53.45
2023-01-17T21:28:46.636Z,46.30
2023-01-17T21:32:48.033Z,26.83
2023-01-17T21:36:50.754Z,49.58
2023-01-17T21:40:56.493Z,39.63
2023-01-17T21:44:57.905Z,49.72
2023-01-17T21:48:59.292Z,60.10
2023-01-17T21:53:02.819Z,47.38
2023-01-17T21:57:04.221Z,49.33
2023-01-17T22:01:06.168Z,56.22
2023-01-17T22:05:09.002Z,43.80
2023-01-17T22:09:11.725Z,44.03
2023-01-17T22:13:14.542Z,53.75
2023-01-17T22:17:15.988Z,41.15
2023-01-17T22:21:18.920Z,54.97
2023-01-17T22:25:21.653Z,50.78
2023-01-17T22:29:23.210Z,46.85
2023-01-17T22:33:24.601Z,30.42
2023-01-17T22:37:26.580Z,40.08
2023-01-17T22:41:29.724Z,50.40
2023-01-17T22:45:31.161Z,54.25
2023-01-17T22:49:32.555Z,47.67
2023-01-17T22:53:34.030Z,44.75
2023-01-17T22:57:36.772Z,47.33
2023-01-17T23:01:39.609Z,50.13
2023-01-17T23:05:41.007Z,57.80
2023-01-17T23:09:42.400Z,62.03
2023-01-17T23:13:45.120Z,64.13
2023-01-17T23:17:46.509Z,56.78
2023-01-17T23:21:48.313Z,54.15
2023-01-17T23:25:49.713Z,46.97
2023-01-17T23:29:52.429Z,23.45
2023-01-17T23:33:53.841Z,46.05
2023-01-17T23:37:55.884Z,53.38
2023-01-17T23:41:57.410Z,45.42
2023-01-17T23:46:00.525Z,42.50
2023-01-17T23:50:01.915Z,47.55
2023-01-17T23:54:03.605Z,55.88
2023-01-17T23:58:05.910Z,44.60
